sensor_id;sensor_type;location;lat;lon;timestamp;P1;durP1;ratioP1;P2;durP2;ratioP2
1140;SDS011;559;48.628;8.924;2023-06-04T00:00:50;189.03;;;181.47;;
1140;SDS011;559;48.628;8.924;2023-06-04T00:03:17;191.43;;;183.90;;
1140;SDS011;559;48.628;8.924;2023-06-04T00:05:43;190.17;;;182.27;;
1140;SDS011;559;48.628;8.924;2023-06-04T00:08:11;194.70;;;186.80;;
1140;SDS011;559;48.628;8.924;2023-06-04T00:10:37;191.47;;;183.37;;
1140;SDS011;559;48.628;8.924;2023-06-04T00:13:05;182.20;;;174.20;;
1140;SDS011;559;48.628;8.924;2023-06-04T00:15:31;184.13;;;176.23;;
1140;SDS011;559;48.628;8.924;2023-06-04T00:17:58;186.63;;;178.87;;
1140;SDS011;559;48.628;8.924;2023-06-04T00:20:24;177.90;;;170.53;;
1140;SDS011;559;48.628;8.924;2023-06-04T00:22:51;175.37;;;167.87;;
1140;SDS011;559;48.628;8.924;2023-06-04T00:25:18;173.90;;;166.40;;
1140;SDS011;559;48.628;8.924;2023-06-04T00:27:45;172.50;;;165.07;;
1140;SDS011;559;48.628;8.924;2023-06-04T00:30:12;180.30;;;172.53;;
1140;SDS011;559;48.628;8.924;2023-06-04T00:32:39;182.03;;;174.17;;
1140;SDS011;559;48.628;8.924;2023-06-04T00:35:06;179.10;;;171.30;;
1140;SDS011;559;48.628;8.924;2023-06-04T00:37:34;186.03;;;178.13;;
1140;SDS011;559;48.628;8.924;2023-06-04T00:40:00;184.77;;;176.87;;
1140;SDS011;559;48.628;8.924;2023-06-04T00:42:28;176.60;;;169.13;;
1140;SDS011;559;48.628;8.924;2023-06-04T00:44:55;176.07;;;168.60;;
1140;SDS011;559;48.628;8.924;2023-06-04T00:47:22;176.53;;;168.80;;
1140;SDS011;559;48.628;8.924;2023-06-04T00:49:49;178.80;;;171.20;;
1140;SDS011;559;48.628;8.924;2023-06-04T00:52:16;177.83;;;170.17;;
1140;SDS011;559;48.628;8.924;2023-06-04T00:54:42;185.77;;;178.03;;
1140;SDS011;559;48.628;8.924;2023-06-04T00:57:09;177.57;;;170.10;;
1140;SDS011;559;48.628;8.924;2023-06-04T00:59:38;180.87;;;173.07;;
1140;SDS011;559;48.628;8.924;2023-06-04T01:02:06;188.67;;;180.57;;
1140;SDS011;559;48.628;8.924;2023-06-04T01:04:36;183.63;;;175.80;;
1140;SDS011;559;48.628;8.924;2023-06-04T01:07:04;183.53;;;175.83;;
1140;SDS011;559;48.628;8.924;2023-06-04T01:09:33;182.50;;;174.80;;
1140;SDS011;559;48.628;8.924;2023-06-04T01:12:03;180.90;;;173.30;;
1140;SDS011;559;48.628;8.924;2023-06-04T01:14:30;178.13;;;170.27;;
1140;SDS011;559;48.628;8.924;2023-06-04T01:17:01;180.17;;;172.57;;
1140;SDS011;559;48.628;8.924;2023-06-04T01:19:56;178.47;;;170.97;;
1140;SDS011;559;48.628;8.924;2023-06-04T01:22:30;188.83;;;180.73;;
1140;SDS011;559;48.628;8.924;2023-06-04T01:25:02;193.37;;;184.97;;
1140;SDS011;559;48.628;8.924;2023-06-04T01:27:30;195.45;;;186.93;;
1140;SDS011;559;48.628;8.924;2023-06-04T01:29:57;191.60;;;183.10;;
1140;SDS011;559;48.628;8.924;2023-06-04T01:32:26;189.77;;;181.30;;
1140;SDS011;559;48.628;8.924;2023-06-04T01:34:53;188.73;;;180.33;;
1140;SDS011;559;48.628;8.924;2023-06-04T01:37:20;187.53;;;179.10;;
1140;SDS011;559;48.628;8.924;2023-06-04T01:39:47;178.27;;;170.18;;
1140;SDS011;559;48.628;8.924;2023-06-04T01:42:13;181.55;;;173.43;;
1140;SDS011;559;48.628;8.924;2023-06-04T01:44:40;181.33;;;173.07;;
1140;SDS011;559;48.628;8.924;2023-06-04T01:47:06;178.80;;;170.80;;
1140;SDS011;559;48.628;8.924;2023-06-04T01:49:34;174.87;;;167.07;;
1140;SDS011;559;48.628;8.924;2023-06-04T01:52:02;180.93;;;172.80;;
1140;SDS011;559;48.628;8.924;2023-06-04T01:54:30;179.48;;;171.52;;
1140;SDS011;559;48.628;8.924;2023-06-04T01:56:58;183.77;;;175.57;;
1140;SDS011;559;48.628;8.924;2023-06-04T01:59:25;180.73;;;172.50;;
1140;SDS011;559;48.628;8.924;2023-06-04T02:01:52;180.23;;;171.93;;
1140;SDS011;559;48.628;8.924;2023-06-04T02:04:19;189.23;;;180.68;;
1140;SDS011;559;48.628;8.924;2023-06-04T02:06:47;177.10;;;168.80;;
1140;SDS011;559;48.628;8.924;2023-06-04T02:09:14;185.00;;;176.67;;
1140;SDS011;559;48.628;8.924;2023-06-04T02:11:41;182.88;;;174.65;;
1140;SDS011;559;48.628;8.924;2023-06-04T02:14:08;179.43;;;170.85;;
1140;SDS011;559;48.628;8.924;2023-06-04T02:16:34;181.07;;;172.82;;
1140;SDS011;559;48.628;8.924;2023-06-04T02:19:02;187.65;;;179.23;;
1140;SDS011;559;48.628;8.924;2023-06-04T02:21:29;189.30;;;180.65;;
1140;SDS011;559;48.628;8.924;2023-06-04T02:23:57;184.38;;;176.15;;
1140;SDS011;559;48.628;8.924;2023-06-04T02:26:24;193.88;;;185.10;;
1140;SDS011;559;48.628;8.924;2023-06-04T02:28:51;187.02;;;178.75;;
1140;SDS011;559;48.628;8.924;2023-06-04T02:31:17;187.80;;;178.80;;
1140;SDS011;559;48.628;8.924;2023-06-04T02:33:44;191.18;;;182.60;;
1140;SDS011;559;48.628;8.924;2023-06-04T02:36:11;190.23;;;181.50;;
1140;SDS011;559;48.628;8.924;2023-06-04T02:38:37;196.75;;;187.73;;
1140;SDS011;559;48.628;8.924;2023-06-04T02:41:05;194.63;;;185.80;;
1140;SDS011;559;48.628;8.924;2023-06-04T02:43:32;186.20;;;177.10;;
1140;SDS011;559;48.628;8.924;2023-06-04T02:45:58;184.73;;;176.30;;
1140;SDS011;559;48.628;8.924;2023-06-04T02:48:25;188.73;;;180.05;;
1140;SDS011;559;48.628;8.924;2023-06-04T02:50:51;194.68;;;185.48;;
1140;SDS011;559;48.628;8.924;2023-06-04T02:53:18;205.25;;;195.80;;
1140;SDS011;559;48.628;8.924;2023-06-04T02:55:45;208.60;;;198.48;;
1140;SDS011;559;48.628;8.924;2023-06-04T02:58:13;198.75;;;189.10;;
1140;SDS011;559;48.628;8.924;2023-06-04T03:00:41;198.30;;;188.60;;
1140;SDS011;559;48.628;8.924;2023-06-04T03:03:07;201.00;;;191.02;;
1140;SDS011;559;48.628;8.924;2023-06-04T03:05:34;203.00;;;192.85;;
1140;SDS011;559;48.628;8.924;2023-06-04T03:08:02;197.23;;;187.27;;
1140;SDS011;559;48.628;8.924;2023-06-04T03:10:29;204.27;;;194.48;;
1140;SDS011;559;48.628;8.924;2023-06-04T03:12:56;197.73;;;187.95;;
1140;SDS011;559;48.628;8.924;2023-06-04T03:15:24;191.13;;;181.82;;
1140;SDS011;559;48.628;8.924;2023-06-04T03:17:50;192.18;;;182.65;;
1140;SDS011;559;48.628;8.924;2023-06-04T03:20:17;194.77;;;185.55;;
1140;SDS011;559;48.628;8.924;2023-06-04T03:22:44;195.90;;;186.52;;
1140;SDS011;559;48.628;8.924;2023-06-04T03:25:10;184.32;;;175.38;;
1140;SDS011;559;48.628;8.924;2023-06-04T03:27:37;191.25;;;182.02;;
1140;SDS011;559;48.628;8.924;2023-06-04T03:30:04;185.88;;;176.55;;
1140;SDS011;559;48.628;8.924;2023-06-04T03:32:32;192.52;;;183.10;;
1140;SDS011;559;48.628;8.924;2023-06-04T03:34:59;183.80;;;174.35;;
1140;SDS011;559;48.628;8.924;2023-06-04T03:37:26;184.25;;;175.45;;
1140;SDS011;559;48.628;8.924;2023-06-04T03:39:53;183.02;;;174.25;;
1140;SDS011;559;48.628;8.924;2023-06-04T03:42:19;188.18;;;178.85;;
1140;SDS011;559;48.628;8.924;2023-06-04T03:44:46;187.45;;;178.05;;
1140;SDS011;559;48.628;8.924;2023-06-04T03:47:12;181.57;;;172.23;;
1140;SDS011;559;48.628;8.924;2023-06-04T03:49:41;194.32;;;184.10;;
1140;SDS011;559;48.628;8.924;2023-06-04T03:52:07;202.20;;;192.07;;
1140;SDS011;559;48.628;8.924;2023-06-04T03:54:34;202.80;;;192.20;;
1140;SDS011;559;48.628;8.924;2023-06-04T03:57:00;203.23;;;193.02;;
1140;SDS011;559;48.628;8.924;2023-06-04T03:59:27;197.30;;;187.10;;
1140;SDS011;559;48.628;8.924;2023-06-04T04:01:54;200.40;;;190.50;;
1140;SDS011;559;48.628;8.924;2023-06-04T04:04:21;199.52;;;189.60;;
1140;SDS011;559;48.628;8.924;2023-06-04T04:06:49;199.77;;;189.60;;
1140;SDS011;559;48.628;8.924;2023-06-04T04:09:16;202.55;;;192.35;;
1140;SDS011;559;48.628;8.924;2023-06-04T04:11:42;208.15;;;197.55;;
1140;SDS011;559;48.628;8.924;2023-06-04T04:14:09;210.77;;;199.88;;
1140;SDS011;559;48.628;8.924;2023-06-04T04:16:35;199.23;;;188.63;;
1140;SDS011;559;48.628;8.924;2023-06-04T04:19:02;193.65;;;183.15;;
1140;SDS011;559;48.628;8.924;2023-06-04T04:21:28;198.85;;;188.23;;
1140;SDS011;559;48.628;8.924;2023-06-04T04:23:56;194.00;;;183.68;;
1140;SDS011;559;48.628;8.924;2023-06-04T04:26:23;200.77;;;190.48;;
1140;SDS011;559;48.628;8.924;2023-06-04T04:28:52;196.48;;;186.50;;
1140;SDS011;559;48.628;8.924;2023-06-04T04:31:23;201.48;;;191.18;;
1140;SDS011;559;48.628;8.924;2023-06-04T04:33:50;202.23;;;192.05;;
1140;SDS011;559;48.628;8.924;2023-06-04T04:36:17;187.30;;;177.40;;
1140;SDS011;559;48.628;8.924;2023-06-04T04:38:43;178.02;;;168.32;;
1140;SDS011;559;48.628;8.924;2023-06-04T04:41:12;177.25;;;167.85;;
1140;SDS011;559;48.628;8.924;2023-06-04T04:43:38;170.65;;;161.88;;
1140;SDS011;559;48.628;8.924;2023-06-04T04:46:05;169.93;;;160.93;;
1140;SDS011;559;48.628;8.924;2023-06-04T04:48:32;163.48;;;155.13;;
1140;SDS011;559;48.628;8.924;2023-06-04T04:50:59;167.40;;;158.60;;
1140;SDS011;559;48.628;8.924;2023-06-04T04:53:25;165.10;;;156.85;;
1140;SDS011;559;48.628;8.924;2023-06-04T04:55:52;162.82;;;154.73;;
1140;SDS011;559;48.628;8.924;2023-06-04T04:58:20;158.70;;;150.70;;
1140;SDS011;559;48.628;8.924;2023-06-04T05:00:46;158.35;;;150.55;;
1140;SDS011;559;48.628;8.924;2023-06-04T05:03:13;155.98;;;148.30;;
1140;SDS011;559;48.628;8.924;2023-06-04T05:05:52;160.85;;;152.70;;
1140;SDS011;559;48.628;8.924;2023-06-04T05:08:24;170.15;;;161.35;;
1140;SDS011;559;48.628;8.924;2023-06-04T05:10:50;179.75;;;170.18;;
1140;SDS011;559;48.628;8.924;2023-06-04T05:13:23;179.43;;;169.85;;
1140;SDS011;559;48.628;8.924;2023-06-04T05:15:52;180.40;;;171.10;;
1140;SDS011;559;48.628;8.924;2023-06-04T05:18:19;167.63;;;158.73;;
1140;SDS011;559;48.628;8.924;2023-06-04T05:20:46;174.80;;;165.30;;
1140;SDS011;559;48.628;8.924;2023-06-04T05:23:15;170.43;;;161.32;;
1140;SDS011;559;48.628;8.924;2023-06-04T05:25:44;174.43;;;164.95;;
1140;SDS011;559;48.628;8.924;2023-06-04T05:28:14;180.20;;;170.60;;
1140;SDS011;559;48.628;8.924;2023-06-04T05:30:41;161.32;;;153.15;;
1140;SDS011;559;48.628;8.924;2023-06-04T05:33:08;150.43;;;142.93;;
1140;SDS011;559;48.628;8.924;2023-06-04T05:35:42;149.23;;;141.87;;
1140;SDS011;559;48.628;8.924;2023-06-04T05:38:09;145.33;;;138.43;;
1140;SDS011;559;48.628;8.924;2023-06-04T05:40:42;128.80;;;122.90;;
1140;SDS011;559;48.628;8.924;2023-06-04T05:43:08;125.47;;;119.63;;
1140;SDS011;559;48.628;8.924;2023-06-04T05:45:35;121.83;;;116.40;;
1140;SDS011;559;48.628;8.924;2023-06-04T05:48:03;127.50;;;121.90;;
1140;SDS011;559;48.628;8.924;2023-06-04T05:50:30;127.50;;;122.00;;
1140;SDS011;559;48.628;8.924;2023-06-04T05:52:56;126.00;;;120.63;;
1140;SDS011;559;48.628;8.924;2023-06-04T05:55:23;129.83;;;123.83;;
1140;SDS011;559;48.628;8.924;2023-06-04T05:57:50;126.10;;;120.70;;
1140;SDS011;559;48.628;8.924;2023-06-04T06:00:17;129.07;;;123.43;;
1140;SDS011;559;48.628;8.924;2023-06-04T06:02:44;123.13;;;117.67;;
1140;SDS011;559;48.628;8.924;2023-06-04T06:05:15;131.50;;;125.40;;
1140;SDS011;559;48.628;8.924;2023-06-04T06:07:42;133.10;;;127.13;;
1140;SDS011;559;48.628;8.924;2023-06-04T06:10:09;138.20;;;131.67;;
1140;SDS011;559;48.628;8.924;2023-06-04T06:12:35;133.90;;;127.83;;
1140;SDS011;559;48.628;8.924;2023-06-04T06:15:02;130.77;;;125.20;;
1140;SDS011;559;48.628;8.924;2023-06-04T06:17:29;131.40;;;125.40;;
1140;SDS011;559;48.628;8.924;2023-06-04T06:19:55;128.03;;;122.63;;
1140;SDS011;559;48.628;8.924;2023-06-04T06:22:23;127.73;;;122.50;;
1140;SDS011;559;48.628;8.924;2023-06-04T06:24:50;120.37;;;115.37;;
1140;SDS011;559;48.628;8.924;2023-06-04T06:27:17;108.90;;;104.90;;
1140;SDS011;559;48.628;8.924;2023-06-04T06:29:43;110.53;;;106.43;;
1140;SDS011;559;48.628;8.924;2023-06-04T06:34:37;98.20;;;94.90;;
1140;SDS011;559;48.628;8.924;2023-06-04T06:37:06;84.17;;;81.40;;
1140;SDS011;559;48.628;8.924;2023-06-04T06:39:34;79.23;;;76.23;;
1140;SDS011;559;48.628;8.924;2023-06-04T06:42:00;66.50;;;64.30;;
1140;SDS011;559;48.628;8.924;2023-06-04T06:44:27;57.30;;;55.50;;
1140;SDS011;559;48.628;8.924;2023-06-04T06:46:53;56.73;;;54.93;;
1140;SDS011;559;48.628;8.924;2023-06-04T06:49:20;53.83;;;52.13;;
1140;SDS011;559;48.628;8.924;2023-06-04T06:51:46;38.57;;;37.27;;
1140;SDS011;559;48.628;8.924;2023-06-04T06:54:14;23.13;;;22.23;;
1140;SDS011;559;48.628;8.924;2023-06-04T06:56:43;24.63;;;23.60;;
1140;SDS011;559;48.628;8.924;2023-06-04T06:59:10;20.77;;;20.00;;
1140;SDS011;559;48.628;8.924;2023-06-04T07:01:36;39.37;;;38.10;;
1140;SDS011;559;48.628;8.924;2023-06-04T07:04:03;19.67;;;18.77;;
1140;SDS011;559;48.628;8.924;2023-06-04T07:06:29;22.20;;;21.23;;
1140;SDS011;559;48.628;8.924;2023-06-04T07:08:56;18.23;;;17.53;;
1140;SDS011;559;48.628;8.924;2023-06-04T07:11:22;12.47;;;11.70;;
1140;SDS011;559;48.628;8.924;2023-06-04T07:13:50;13.37;;;12.60;;
1140;SDS011;559;48.628;8.924;2023-06-04T07:16:17;10.47;;;9.87;;
1140;SDS011;559;48.628;8.924;2023-06-04T07:18:47;9.97;;;9.10;;
1140;SDS011;559;48.628;8.924;2023-06-04T07:21:13;7.93;;;7.20;;
1140;SDS011;559;48.628;8.924;2023-06-04T07:23:40;5.87;;;5.20;;
1140;SDS011;559;48.628;8.924;2023-06-04T07:26:07;5.60;;;5.10;;
1140;SDS011;559;48.628;8.924;2023-06-04T07:28:33;4.60;;;4.30;;
1140;SDS011;559;48.628;8.924;2023-06-04T07:31:01;3.40;;;3.20;;
1140;SDS011;559;48.628;8.924;2023-06-04T07:33:28;4.47;;;4.07;;
1140;SDS011;559;48.628;8.924;2023-06-04T07:35:54;7.00;;;4.50;;
1140;SDS011;559;48.628;8.924;2023-06-04T07:38:21;5.17;;;4.50;;
1140;SDS011;559;48.628;8.924;2023-06-04T07:40:47;5.97;;;4.80;;
1140;SDS011;559;48.628;8.924;2023-06-04T07:43:14;5.10;;;4.67;;
1140;SDS011;559;48.628;8.924;2023-06-04T07:45:40;5.03;;;4.33;;
1140;SDS011;559;48.628;8.924;2023-06-04T07:48:09;5.20;;;4.80;;
1140;SDS011;559;48.628;8.924;2023-06-04T07:50:36;4.40;;;4.10;;
1140;SDS011;559;48.628;8.924;2023-06-04T07:53:03;3.70;;;3.40;;
1140;SDS011;559;48.628;8.924;2023-06-04T07:55:29;4.70;;;4.20;;
1140;SDS011;559;48.628;8.924;2023-06-04T07:57:56;4.77;;;3.80;;
1140;SDS011;559;48.628;8.924;2023-06-04T08:00:23;3.50;;;3.20;;
1140;SDS011;559;48.628;8.924;2023-06-04T08:02:50;4.27;;;3.40;;
1140;SDS011;559;48.628;8.924;2023-06-04T08:05:18;4.40;;;4.00;;
1140;SDS011;559;48.628;8.924;2023-06-04T08:07:46;5.23;;;3.23;;
1140;SDS011;559;48.628;8.924;2023-06-04T08:10:13;3.70;;;3.00;;
1140;SDS011;559;48.628;8.924;2023-06-04T08:12:40;3.00;;;2.73;;
1140;SDS011;559;48.628;8.924;2023-06-04T08:15:06;3.00;;;2.80;;
1140;SDS011;559;48.628;8.924;2023-06-04T08:17:33;3.60;;;3.30;;
1140;SDS011;559;48.628;8.924;2023-06-04T08:20:00;3.77;;;3.40;;
1140;SDS011;559;48.628;8.924;2023-06-04T08:22:32;4.93;;;3.30;;
1140;SDS011;559;48.628;8.924;2023-06-04T08:24:59;4.10;;;3.10;;
1140;SDS011;559;48.628;8.924;2023-06-04T08:27:25;4.30;;;2.60;;
1140;SDS011;559;48.628;8.924;2023-06-04T08:29:52;3.07;;;2.47;;
1140;SDS011;559;48.628;8.924;2023-06-04T08:32:19;4.20;;;3.30;;
1140;SDS011;559;48.628;8.924;2023-06-04T08:34:45;6.73;;;3.40;;
1140;SDS011;559;48.628;8.924;2023-06-04T08:37:11;3.47;;;3.20;;
1140;SDS011;559;48.628;8.924;2023-06-04T08:39:39;4.40;;;3.10;;
1140;SDS011;559;48.628;8.924;2023-06-04T08:42:06;4.13;;;3.50;;
1140;SDS011;559;48.628;8.924;2023-06-04T08:44:33;3.90;;;3.50;;
1140;SDS011;559;48.628;8.924;2023-06-04T08:47:01;3.23;;;2.93;;
1140;SDS011;559;48.628;8.924;2023-06-04T08:49:29;4.17;;;3.00;;
1140;SDS011;559;48.628;8.924;2023-06-04T08:52:00;4.83;;;2.70;;
1140;SDS011;559;48.628;8.924;2023-06-04T08:54:26;4.63;;;3.20;;
1140;SDS011;559;48.628;8.924;2023-06-04T08:56:55;4.03;;;3.60;;
1140;SDS011;559;48.628;8.924;2023-06-04T08:59:22;3.60;;;3.30;;
1140;SDS011;559;48.628;8.924;2023-06-04T09:01:50;4.07;;;3.53;;
1140;SDS011;559;48.628;8.924;2023-06-04T09:04:17;4.10;;;3.23;;
1140;SDS011;559;48.628;8.924;2023-06-04T09:06:44;4.43;;;2.83;;
1140;SDS011;559;48.628;8.924;2023-06-04T09:09:11;7.87;;;3.67;;
1140;SDS011;559;48.628;8.924;2023-06-04T09:11:41;4.67;;;3.07;;
1140;SDS011;559;48.628;8.924;2023-06-04T09:14:14;3.50;;;3.20;;
1140;SDS011;559;48.628;8.924;2023-06-04T09:16:42;7.60;;;3.75;;
1140;SDS011;559;48.628;8.924;2023-06-04T09:19:09;3.60;;;3.30;;
1140;SDS011;559;48.628;8.924;2023-06-04T09:21:45;4.37;;;3.17;;
1140;SDS011;559;48.628;8.924;2023-06-04T09:24:13;10.03;;;3.53;;
1140;SDS011;559;48.628;8.924;2023-06-04T09:26:39;3.57;;;3.10;;
1140;SDS011;559;48.628;8.924;2023-06-04T09:29:06;2.97;;;2.73;;
1140;SDS011;559;48.628;8.924;2023-06-04T09:31:34;4.57;;;3.70;;
1140;SDS011;559;48.628;8.924;2023-06-04T09:34:02;4.40;;;4.00;;
1140;SDS011;559;48.628;8.924;2023-06-04T09:36:29;4.50;;;3.90;;
1140;SDS011;559;48.628;8.924;2023-06-04T09:38:56;5.10;;;4.20;;
1140;SDS011;559;48.628;8.924;2023-06-04T09:41:23;4.30;;;3.60;;
1140;SDS011;559;48.628;8.924;2023-06-04T09:43:50;6.70;;;3.70;;
1140;SDS011;559;48.628;8.924;2023-06-04T09:46:17;6.03;;;3.57;;
1140;SDS011;559;48.628;8.924;2023-06-04T09:48:45;4.30;;;3.90;;
1140;SDS011;559;48.628;8.924;2023-06-04T09:51:12;4.33;;;3.90;;
1140;SDS011;559;48.628;8.924;2023-06-04T09:53:40;3.90;;;3.50;;
1140;SDS011;559;48.628;8.924;2023-06-04T09:56:08;4.07;;;3.20;;
1140;SDS011;559;48.628;8.924;2023-06-04T09:58:37;4.00;;;3.47;;
1140;SDS011;559;48.628;8.924;2023-06-04T10:01:04;4.37;;;3.50;;
1140;SDS011;559;48.628;8.924;2023-06-04T10:03:32;4.33;;;3.30;;
1140;SDS011;559;48.628;8.924;2023-06-04T10:06:01;3.67;;;3.47;;
1140;SDS011;559;48.628;8.924;2023-06-04T10:08:29;9.90;;;4.07;;
1140;SDS011;559;48.628;8.924;2023-06-04T10:10:56;6.13;;;3.63;;
1140;SDS011;559;48.628;8.924;2023-06-04T10:13:27;4.70;;;3.80;;
1140;SDS011;559;48.628;8.924;2023-06-04T10:15:54;3.07;;;2.83;;
1140;SDS011;559;48.628;8.924;2023-06-04T10:18:23;7.30;;;4.30;;
1140;SDS011;559;48.628;8.924;2023-06-04T10:20:50;5.50;;;3.87;;
1140;SDS011;559;48.628;8.924;2023-06-04T10:23:20;6.00;;;4.30;;
1140;SDS011;559;48.628;8.924;2023-06-04T10:25:47;6.20;;;4.47;;
1140;SDS011;559;48.628;8.924;2023-06-04T10:28:15;5.33;;;3.90;;
1140;SDS011;559;48.628;8.924;2023-06-04T10:30:41;4.87;;;3.90;;
1140;SDS011;559;48.628;8.924;2023-06-04T10:33:08;3.47;;;3.17;;
1140;SDS011;559;48.628;8.924;2023-06-04T10:35:35;7.10;;;4.00;;
1140;SDS011;559;48.628;8.924;2023-06-04T10:38:05;9.33;;;4.47;;
1140;SDS011;559;48.628;8.924;2023-06-04T10:40:35;4.73;;;4.30;;
1140;SDS011;559;48.628;8.924;2023-06-04T10:43:04;8.33;;;4.40;;
1140;SDS011;559;48.628;8.924;2023-06-04T10:45:31;5.00;;;4.60;;
1140;SDS011;559;48.628;8.924;2023-06-04T10:47:59;5.40;;;4.60;;
1140;SDS011;559;48.628;8.924;2023-06-04T10:50:26;5.97;;;4.37;;
1140;SDS011;559;48.628;8.924;2023-06-04T10:52:53;4.20;;;3.80;;
1140;SDS011;559;48.628;8.924;2023-06-04T10:55:21;4.40;;;4.03;;
1140;SDS011;559;48.628;8.924;2023-06-04T10:57:52;4.87;;;3.90;;
1140;SDS011;559;48.628;8.924;2023-06-04T11:00:19;6.40;;;4.50;;
1140;SDS011;559;48.628;8.924;2023-06-04T11:02:50;3.90;;;3.50;;
1140;SDS011;559;48.628;8.924;2023-06-04T11:05:18;7.47;;;4.60;;
1140;SDS011;559;48.628;8.924;2023-06-04T11:07:46;5.10;;;4.70;;
1140;SDS011;559;48.628;8.924;2023-06-04T11:10:16;5.03;;;3.90;;
1140;SDS011;559;48.628;8.924;2023-06-04T11:12:44;4.30;;;3.80;;
1140;SDS011;559;48.628;8.924;2023-06-04T11:15:13;4.27;;;3.70;;
1140;SDS011;559;48.628;8.924;2023-06-04T11:17:50;4.97;;;3.60;;
1140;SDS011;559;48.628;8.924;2023-06-04T11:20:18;4.53;;;4.23;;
1140;SDS011;559;48.628;8.924;2023-06-04T11:22:50;3.43;;;3.13;;
1140;SDS011;559;48.628;8.924;2023-06-04T11:25:17;4.33;;;3.73;;
1140;SDS011;559;48.628;8.924;2023-06-04T11:27:44;3.77;;;3.37;;
1140;SDS011;559;48.628;8.924;2023-06-04T11:30:11;4.30;;;3.70;;
1140;SDS011;559;48.628;8.924;2023-06-04T11:32:40;5.83;;;4.00;;
1140;SDS011;559;48.628;8.924;2023-06-04T11:35:07;4.57;;;3.87;;
1140;SDS011;559;48.628;8.924;2023-06-04T11:37:36;7.23;;;4.13;;
1140;SDS011;559;48.628;8.924;2023-06-04T11:40:14;5.10;;;4.43;;
1140;SDS011;559;48.628;8.924;2023-06-04T12:58:56;4.63;;;4.23;;
1140;SDS011;559;48.628;8.924;2023-06-04T13:01:23;4.90;;;4.00;;
1140;SDS011;559;48.628;8.924;2023-06-04T13:03:50;4.10;;;3.80;;
1140;SDS011;559;48.628;8.924;2023-06-04T13:06:18;4.47;;;3.17;;
1140;SDS011;559;48.628;8.924;2023-06-04T13:08:46;3.77;;;3.43;;
1140;SDS011;559;48.628;8.924;2023-06-04T13:11:15;4.47;;;3.63;;
1140;SDS011;559;48.628;8.924;2023-06-04T13:13:43;5.30;;;4.10;;
1140;SDS011;559;48.628;8.924;2023-06-04T13:16:09;4.27;;;3.80;;
1140;SDS011;559;48.628;8.924;2023-06-04T13:18:36;3.80;;;3.50;;
1140;SDS011;559;48.628;8.924;2023-06-04T13:21:02;4.30;;;3.90;;
1140;SDS011;559;48.628;8.924;2023-06-04T13:23:29;4.63;;;4.13;;
1140;SDS011;559;48.628;8.924;2023-06-04T13:25:55;4.77;;;4.40;;
1140;SDS011;559;48.628;8.924;2023-06-04T13:28:23;5.27;;;4.30;;
1140;SDS011;559;48.628;8.924;2023-06-04T13:30:50;4.10;;;3.70;;
1140;SDS011;559;48.628;8.924;2023-06-04T13:33:16;4.47;;;4.07;;
1140;SDS011;559;48.628;8.924;2023-06-04T13:35:44;5.13;;;3.37;;
1140;SDS011;559;48.628;8.924;2023-06-04T13:38:10;4.27;;;3.57;;
1140;SDS011;559;48.628;8.924;2023-06-04T13:40:38;5.33;;;3.93;;
1140;SDS011;559;48.628;8.924;2023-06-04T13:43:04;8.53;;;4.70;;
1140;SDS011;559;48.628;8.924;2023-06-04T13:45:33;8.63;;;4.20;;
1140;SDS011;559;48.628;8.924;2023-06-04T13:47:59;4.13;;;3.73;;
1140;SDS011;559;48.628;8.924;2023-06-04T13:50:29;3.67;;;3.37;;
1140;SDS011;559;48.628;8.924;2023-06-04T13:52:56;5.27;;;3.83;;
1140;SDS011;559;48.628;8.924;2023-06-04T13:55:22;4.93;;;4.00;;
1140;SDS011;559;48.628;8.924;2023-06-04T13:57:49;5.40;;;4.10;;
1140;SDS011;559;48.628;8.924;2023-06-04T14:00:16;5.80;;;4.87;;
1140;SDS011;559;48.628;8.924;2023-06-04T14:02:43;4.73;;;3.93;;
1140;SDS011;559;48.628;8.924;2023-06-04T14:05:10;4.20;;;3.90;;
1140;SDS011;559;48.628;8.924;2023-06-04T14:07:36;5.10;;;3.57;;
1140;SDS011;559;48.628;8.924;2023-06-04T14:10:03;4.50;;;3.83;;
1140;SDS011;559;48.628;8.924;2023-06-04T14:12:30;3.90;;;3.60;;
1140;SDS011;559;48.628;8.924;2023-06-04T14:14:57;5.90;;;3.60;;
1140;SDS011;559;48.628;8.924;2023-06-04T14:17:23;5.00;;;4.20;;
1140;SDS011;559;48.628;8.924;2023-06-04T14:19:51;4.50;;;3.20;;
1140;SDS011;559;48.628;8.924;2023-06-04T14:22:18;4.40;;;3.70;;
1140;SDS011;559;48.628;8.924;2023-06-04T14:24:44;3.80;;;3.20;;
1140;SDS011;559;48.628;8.924;2023-06-04T14:27:11;4.27;;;3.10;;
1140;SDS011;559;48.628;8.924;2023-06-04T14:29:38;3.43;;;3.20;;
1140;SDS011;559;48.628;8.924;2023-06-04T14:32:04;4.90;;;4.40;;
1140;SDS011;559;48.628;8.924;2023-06-04T14:34:31;8.93;;;3.57;;
1140;SDS011;559;48.628;8.924;2023-06-04T14:36:59;4.07;;;3.13;;
1140;SDS011;559;48.628;8.924;2023-06-04T14:39:26;3.93;;;2.93;;
1140;SDS011;559;48.628;8.924;2023-06-04T14:41:52;4.07;;;3.07;;
1140;SDS011;559;48.628;8.924;2023-06-04T14:44:19;4.40;;;3.10;;
1140;SDS011;559;48.628;8.924;2023-06-04T14:46:46;5.50;;;3.20;;
1140;SDS011;559;48.628;8.924;2023-06-04T14:49:14;5.63;;;3.83;;
1140;SDS011;559;48.628;8.924;2023-06-04T14:51:40;6.03;;;3.40;;
1140;SDS011;559;48.628;8.924;2023-06-04T14:54:08;3.57;;;3.10;;
1140;SDS011;559;48.628;8.924;2023-06-04T14:56:35;3.50;;;3.10;;
1140;SDS011;559;48.628;8.924;2023-06-04T14:59:01;4.30;;;3.47;;
1140;SDS011;559;48.628;8.924;2023-06-04T15:01:30;4.70;;;3.30;;
1140;SDS011;559;48.628;8.924;2023-06-04T15:03:57;3.93;;;3.00;;
1140;SDS011;559;48.628;8.924;2023-06-04T15:06:23;3.70;;;3.40;;
1140;SDS011;559;48.628;8.924;2023-06-04T15:08:50;5.23;;;3.73;;
1140;SDS011;559;48.628;8.924;2023-06-04T15:11:17;3.90;;;3.40;;
1140;SDS011;559;48.628;8.924;2023-06-04T15:13:44;6.03;;;3.30;;
1140;SDS011;559;48.628;8.924;2023-06-04T15:16:10;2.70;;;2.50;;
1140;SDS011;559;48.628;8.924;2023-06-04T15:18:37;5.07;;;3.33;;
1140;SDS011;559;48.628;8.924;2023-06-04T15:21:04;9.37;;;3.70;;
1140;SDS011;559;48.628;8.924;2023-06-04T15:23:30;5.07;;;3.93;;
1140;SDS011;559;48.628;8.924;2023-06-04T15:25:57;4.53;;;3.70;;
1140;SDS011;559;48.628;8.924;2023-06-04T15:28:24;3.27;;;2.97;;
1140;SDS011;559;48.628;8.924;2023-06-04T15:30:51;4.93;;;3.77;;
1140;SDS011;559;48.628;8.924;2023-06-04T15:33:17;3.50;;;3.20;;
1140;SDS011;559;48.628;8.924;2023-06-04T15:35:44;3.37;;;3.10;;
1140;SDS011;559;48.628;8.924;2023-06-04T15:38:10;3.97;;;3.57;;
1140;SDS011;559;48.628;8.924;2023-06-04T15:40:37;3.83;;;3.03;;
1140;SDS011;559;48.628;8.924;2023-06-04T15:43:03;3.73;;;3.10;;
1140;SDS011;559;48.628;8.924;2023-06-04T15:45:31;8.90;;;4.00;;
1140;SDS011;559;48.628;8.924;2023-06-04T15:47:58;3.87;;;3.50;;
1140;SDS011;559;48.628;8.924;2023-06-04T15:50:24;4.27;;;2.93;;
1140;SDS011;559;48.628;8.924;2023-06-04T15:52:51;4.20;;;2.93;;
1140;SDS011;559;48.628;8.924;2023-06-04T15:55:17;4.80;;;3.27;;
1140;SDS011;559;48.628;8.924;2023-06-04T15:57:44;3.10;;;2.80;;
1140;SDS011;559;48.628;8.924;2023-06-04T16:00:11;3.20;;;2.87;;
1140;SDS011;559;48.628;8.924;2023-06-04T16:02:40;4.73;;;2.80;;
1140;SDS011;559;48.628;8.924;2023-06-04T16:05:06;4.30;;;3.53;;
1140;SDS011;559;48.628;8.924;2023-06-04T16:07:33;4.03;;;3.40;;
1140;SDS011;559;48.628;8.924;2023-06-04T16:10:00;3.83;;;3.30;;
1140;SDS011;559;48.628;8.924;2023-06-04T16:12:26;3.50;;;3.20;;
1140;SDS011;559;48.628;8.924;2023-06-04T16:14:53;4.70;;;3.50;;
1140;SDS011;559;48.628;8.924;2023-06-04T16:17:19;4.13;;;3.00;;
1140;SDS011;559;48.628;8.924;2023-06-04T16:19:47;3.33;;;3.03;;
1140;SDS011;559;48.628;8.924;2023-06-04T16:22:14;5.90;;;3.00;;